Date,TemperatureHighF,TemperatureAvgF,TemperatureLowF,DewpointHighF,DewpointAvgF,DewpointLowF,HumidityHigh,HumidityAvg,HumidityLow,PressureMaxIn,PressureMinIn,WindSpeedMaxMPH,WindSpeedAvgMPH,GustSpeedMaxMPH,PrecipitationSumIn
2013-1-2,34,33,31,16,13,12,48,45,42,30.27,30.21,0,0,0,0.00
2013-1-3,38,32,29,24,18,12,71,56,44,30.29,30.18,0,0,0,0.00
2013-1-4,44,36,29,26,21,18,83,54,37,30.24,30.13,0,0,0,0.00
2013-1-5,44,38,33,33,22,18,80,52,37,30.41,30.18,0,0,0,0.00
2013-1-6,51,43,34,34,30,25,90,60,37,30.22,30.04,0,0,0,0.00
2013-1-7,46,42,34,31,27,24,84,56,43,30.46,30.17,0,0,0,0.00
2013-1-8,52,41,31,36,32,27,89,71,46,30.45,30.38,0,0,0,0.00
2013-1-9,54,42,35,42,37,27,94,83,36,30.41,30.25,0,0,0,0.00
2013-1-10,54,48,43,31,28,25,60,46,33,30.62,30.41,0,0,0,0.00
2013-1-11,44,42,38,43,36,29,100,82,57,30.52,30.12,0,0,0,0.00
2013-1-12,52,45,42,47,44,42,100,96,83,30.20,30.12,0,0,0,0.00
2013-1-13,54,49,42,54,49,42,100,100,99,30.18,30.00,0,0,0,0.00
2013-1-14,59,52,40,59,46,36,100,78,61,30.32,29.97,0,0,0,0.00
2013-1-15,41,39,36,40,38,36,99,97,90,30.37,30.17,0,0,0,0.00
2013-1-16,41,38,35,41,38,35,100,99,96,30.18,29.87,0,0,0,0.00
2013-1-17,44,42,39,42,35,28,100,79,54,30.16,29.99,0,0,0,0.00
2013-1-18,39,35,33,30,17,4,71,49,27,30.53,30.05,0,0,0,0.00
2013-1-19,54,42,32,28,25,21,72,54,32,30.45,30.00,0,0,0,0.00
2013-1-20,59,47,39,31,21,4,66,39,14,30.10,29.84,0,0,0,0.00
2013-1-21,46,38,31,29,20,10,57,47,34,30.13,29.80,0,0,0,0.00
2013-1-22,31,22,19,11,-3,-9,45,33,22,30.32,29.94,0,0,0,0.00
2013-1-23,26,22,16,15,0,-4,72,40,27,30.38,30.18,0,0,0,0.00
2013-1-24,27,22,18,18,9,-4,90,60,27,30.55,30.12,0,0,0,0.00
2013-1-25,24,22,19,19,7,-2,86,57,34,30.54,30.10,0,0,0,0.00
2013-1-26,35,29,23,24,21,18,83,72,55,30.46,30.11,0,0,0,0.00
2013-1-27,38,32,28,24,20,17,78,61,46,30.63,30.47,0,0,0,0.00
2013-1-28,47,37,32,43,34,23,97,87,69,30.53,30.07,0,0,0,0.00
2013-1-29,69,54,43,53,47,42,95,79,56,30.15,30.00,0,0,0,0.00
2013-1-30,71,62,56,62,58,51,99,85,73,30.00,29.23,0,0,0,0.00
2013-1-31,63,45,32,62,26,10,98,50,29,29.95,29.17,0,0,0,0.00
2013-2-1,35,28,20,29,10,0,92,48,30,30.43,29.83,0,0,0,0.00
2013-2-2,32,25,18,27,13,2,94,60,35,30.43,30.04,0,0,0,0.00
2013-2-3,34,31,27,30,26,16,95,85,49,30.04,29.86,0,0,0,0.00
2013-2-4,37,32,26,24,16,10,60,51,42,30.14,29.92,0,0,0,0.00
2013-2-5,41,37,33,30,27,22,76,67,56,29.96,29.87,0,0,0,0.00
2013-2-6,46,39,34,32,27,23,84,64,43,30.38,29.96,0,0,0,0.00
2013-2-7,40,36,31,31,26,21,81,67,52,30.48,30.23,0,0,0,0.00
2013-2-8,43,38,33,39,33,21,98,85,54,30.23,29.76,0,0,0,0.00
2013-2-9,40,35,30,22,17,13,64,49,35,30.42,29.95,0,0,0,0.00
2013-2-10,45,36,27,31,18,9,81,51,25,30.51,30.27,0,0,0,0.00
2013-2-11,53,45,37,51,43,31,99,95,56,30.27,29.73,0,0,0,0.00
2013-2-12,56,49,41,33,28,24,67,43,29,30.02,29.82,0,0,0,0.00
2013-2-13,46,39,35,39,32,28,100,77,55,29.98,29.68,0,0,0,0.00
2013-2-14,48,41,34,34,30,24,97,69,42,30.04,29.80,0,0,0,0.00
2013-2-15,60,45,36,38,34,26,97,70,29,30.06,29.90,0,0,0,0.00
2013-2-16,40,36,32,36,30,16,97,78,47,30.04,29.86,0,0,0,0.00
2013-2-17,32,29,25,17,9,2,59,45,31,30.24,29.86,0,0,0,0.00
2013-2-18,41,32,22,22,9,4,56,39,22,30.42,30.19,0,0,0,0.00
2013-2-19,45,40,37,43,31,19,95,71,44,30.19,29.76,0,0,0,0.00
2013-2-20,39,34,26,23,14,7,52,43,34,30.20,29.87,0,0,0,0.00
2013-2-21,39,31,25,18,13,8,57,47,35,30.35,30.16,0,0,0,0.00
2013-2-22,34,32,31,32,24,17,96,72,51,30.41,30.25,0,0,0,0.00
2013-2-23,44,38,33,44,38,32,99,98,95,30.25,29.83,0,0,0,0.00
2013-2-24,52,43,34,42,31,18,96,66,33,30.14,29.82,0,0,0,0.00
2013-2-25,46,38,30,29,23,18,75,54,40,30.24,30.14,0,0,0,0.00
2013-2-26,44,38,33,44,35,27,99,88,70,30.25,29.62,0,0,0,0.00
2013-2-27,56,48,40,45,39,32,100,74,44,29.72,29.53,0,0,0,0.00
2013-2-28,48,44,41,38,29,20,86,57,34,29.75,29.65,0,0,0,0.00
2013-3-1,44,41,37,31,27,24,65,57,46,29.91,29.75,0,0,0,0.00
2013-3-2,37,34,31,25,22,19,67,59,48,29.92,29.84,0,0,0,0.00
2013-3-3,41,34,30,22,18,15,69,53,37,29.95,29.82,0,0,0,0.00
2013-3-4,43,35,30,18,16,12,60,45,30,30.06,29.94,0,0,0,0.00
2013-3-5,50,40,33,32,20,4,81,45,15,30.11,29.84,0,0,0,0.00
2013-3-6,40,36,33,36,34,32,100,93,74,30.01,29.61,0,0,0,0.00
2013-3-7,50,42,37,33,28,24,75,58,37,30.17,30.01,0,0,0,0.00
2013-3-8,49,43,37,29,27,23,69,54,42,30.28,30.15,0,0,0,0.00
2013-3-9,59,47,36,34,25,18,71,45,20,30.38,30.26,0,0,0,0.00
2013-3-10,63,49,36,38,26,7,86,48,11,30.36,30.24,0,0,0,0.00
2013-3-11,61,52,44,50,45,39,93,79,66,30.27,29.96,0,0,0,0.00
2013-3-12,58,54,43,56,46,31,99,78,53,29.99,29.71,0,0,0,0.00
2013-3-13,51,43,36,32,26,16,75,52,27,30.09,29.92,0,0,0,0.00
2013-3-14,46,38,33,20,16,11,54,40,26,30.16,30.04,0,0,0,0.00
2013-3-15,57,46,34,38,27,18,68,47,30,30.12,29.80,0,0,0,0.00
2013-3-16,61,49,41,49,38,34,84,67,47,29.93,29.65,0,0,0,0.00
2013-3-17,41,39,37,36,31,26,84,74,58,30.30,29.92,0,0,0,0.00
2013-3-18,39,37,32,37,31,23,99,83,54,30.35,29.91,0,0,0,0.00
2013-3-19,59,46,37,42,29,2,98,64,11,29.94,29.73,0,0,0,0.00
2013-3-20,53,46,38,23,11,3,45,24,16,30.02,29.78,0,0,0,0.00
2013-3-21,43,35,30,28,14,5,78,44,30,29.93,29.79,0,0,0,0.00
2013-3-22,48,37,29,22,15,9,52,40,27,30.02,29.91,0,0,0,0.00
2013-3-23,54,43,32,26,21,19,66,43,27,30.06,29.92,0,0,0,0.00
2013-3-24,43,38,34,34,25,20,96,60,43,30.02,29.68,0,0,0,0.00
2013-3-25,64,35,32,36,34,31,99,97,92,29.72,29.54,0,0,0,0.00
2013-3-26,49,42,35,35,30,22,96,66,36,30.00,29.72,0,0,0,0.00
2013-3-27,51,44,39,30,27,22,65,51,36,30.15,30.00,0,0,0,0.00
2013-3-28,48,44,39,30,28,25,61,53,41,30.25,30.11,0,0,0,0.00
2013-3-29,56,48,42,34,28,22,63,47,29,30.28,30.16,0,0,0,0.00
2013-3-30,61,50,41,36,29,18,79,48,20,30.24,30.12,0,0,0,0.00
2013-3-31,56,50,45,50,41,28,95,72,44,30.15,29.76,0,0,0,0.00
2013-4-1,65,52,43,48,37,19,99,62,31,30.01,29.74,0,0,0,0.00
2013-4-2,50,44,39,19,12,7,40,28,17,30.19,30.01,0,0,0,0.00
2013-4-3,52,42,35,18,13,5,44,32,15,30.41,30.19,0,0,0,0.00
2013-4-4,50,41,32,37,19,9,95,44,23,30.44,30.12,0,0,0,0.00
2013-4-5,65,53,38,40,29,18,97,50,19,30.12,29.84,0,0,0,0.00
2013-4-6,56,48,41,32,21,14,59,35,22,30.35,30.06,0,0,0,0.00
2013-4-7,70,56,42,40,35,30,77,49,28,30.31,30.00,0,0,0,0.00
2013-4-8,80,68,55,50,44,40,63,44,26,30.09,29.95,0,0,0,0.00
2013-4-9,86,76,63,53,50,47,65,42,27,30.09,29.93,0,0,0,0.00
2013-4-10,91,79,66,56,52,49,64,41,26,29.98,29.79,0,0,0,0.00
2013-4-11,86,73,56,59,56,51,86,58,32,29.89,29.73,0,0,0,0.00
2013-4-12,73,60,53,66,58,50,100,91,80,29.83,29.57,0,0,0,0.00
2013-4-13,69,59,50,53,41,33,85,53,26,29.96,29.76,0,0,0,0.00
2013-4-14,67,58,48,47,39,32,76,52,30,30.16,29.96,0,0,0,0.00
2013-4-15,61,59,56,52,47,44,79,65,58,30.31,30.14,0,0,0,0.00
2013-4-16,74,64,55,59,54,48,84,71,53,30.33,30.13,0,0,0,0.00
2013-4-17,77,67,61,61,58,54,93,74,53,30.25,30.13,0,0,0,0.00
2013-4-18,78,66,60,63,58,55,93,76,51,30.24,30.02,0,0,0,0.00
2013-4-19,79,69,51,67,61,49,97,76,59,30.02,29.59,0,0,0,0.00
2013-4-20,60,55,47,50,28,22,97,38,24,30.35,29.80,0,0,0,0.00
2013-4-21,54,49,43,34,25,19,62,40,26,30.61,30.35,0,0,0,0.00
2013-4-22,55,49,42,38,36,33,77,62,50,30.60,30.42,0,0,0,0.00
2013-4-23,60,52,48,44,42,37,84,68,51,30.42,30.15,0,0,0,0.00
2013-4-24,78,63,48,55,49,43,90,64,34,30.14,29.81,0,0,0,0.00
2013-4-25,64,56,47,48,33,23,72,44,22,30.33,29.98,0,0,0,0.00
2013-4-26,66,58,49,42,36,29,75,46,25,30.47,30.32,0,0,0,0.00
2013-4-27,80,59,48,46,40,33,82,52,28,30.43,30.30,0,0,0,0.00
2013-4-28,67,59,52,49,42,33,77,56,29,30.31,30.16,0,0,0,0.00
2013-4-29,59,56,53,58,54,43,99,93,59,30.18,30.06,0,0,0,0.00
2013-4-30,60,57,55,57,54,45,99,90,62,30.30,30.10,0,0,0,0.00
2013-5-1,68,59,50,50,42,31,83,57,26,30.45,30.30,0,0,0,0.00
2013-5-2,66,57,49,48,46,41,87,67,43,30.47,30.33,0,0,0,0.00
2013-5-3,65,57,50,48,43,35,86,61,33,30.40,30.32,0,0,0,0.00
2013-5-4,65,57,50,46,43,38,83,60,40,30.36,30.19,0,0,0,0.00
2013-5-5,61,54,47,47,42,39,79,65,48,30.27,30.17,0,0,0,0.00
2013-5-6,62,56,52,57,52,44,94,86,77,30.20,30.07,0,0,0,0.00
2013-5-7,63,60,58,62,59,57,99,96,90,30.08,29.93,0,0,0,0.00
2013-5-8,71,61,58,59,57,51,97,87,50,30.02,29.95,0,0,0,0.00
2013-5-9,74,62,56,65,58,54,100,88,54,30.01,29.94,0,0,0,0.00
2013-5-10,83,70,57,64,60,54,100,75,39,30.03,29.87,0,0,0,0.00
2013-5-11,79,67,63,68,64,60,100,90,55,29.95,29.71,0,0,0,0.00
2013-5-12,64,61,54,64,39,24,100,48,22,30.06,29.76,0,0,0,0.00
2013-5-13,60,54,47,35,26,17,62,36,19,30.18,30.05,0,0,0,0.00
2013-5-14,64,54,43,42,32,25,66,44,23,30.24,30.07,0,0,0,0.00
2013-5-15,85,68,56,63,52,42,71,59,41,30.07,29.69,0,0,0,0.00
2013-5-16,85,75,67,63,58,54,73,57,39,29.93,29.76,0,0,0,0.00
2013-5-17,82,73,63,59,52,43,80,49,29,30.16,29.93,0,0,0,0.00
2013-5-18,68,63,60,60,56,49,93,79,50,30.26,30.16,0,0,0,0.00
2013-5-19,74,66,60,67,63,58,100,91,73,30.22,30.10,0,0,0,0.00
2013-5-20,81,72,66,69,67,64,96,85,62,30.13,29.99,0,0,0,0.00
2013-5-21,81,74,68,70,68,66,94,83,66,30.02,29.89,0,0,0,0.00
2013-5-22,85,77,69,71,70,63,96,78,61,29.95,29.84,0,0,0,0.00
2013-5-23,81,73,64,70,68,62,99,85,61,29.93,29.76,0,0,0,0.00
2013-5-24,64,58,50,64,48,34,99,71,48,30.17,29.76,0,0,0,0.00
2013-5-25,66,56,46,36,33,29,61,44,25,30.21,30.10,0,0,0,0.00
2013-5-26,73,62,52,40,34,29,54,36,20,30.23,30.14,0,0,0,0.00
2013-5-27,71,64,54,54,42,33,69,46,27,30.30,30.19,0,0,0,0.00
2013-5-28,83,69,62,70,60,51,99,75,54,30.22,30.07,0,0,0,0.00
2013-5-29,91,77,66,72,66,60,100,73,40,30.14,30.08,0,0,0,0.00
2013-5-30,92,81,72,70,66,62,80,62,39,30.20,30.11,0,0,0,0.00
2013-5-31,95,82,71,68,64,60,83,57,33,30.17,30.03,0,0,0,0.00
2013-6-1,94,83,72,69,65,63,75,56,37,30.06,29.93,0,0,0,0.00
2013-6-2,89,80,71,70,67,63,95,66,50,29.93,29.85,0,0,0,0.00
2013-6-3,79,72,67,69,67,57,99,87,61,29.96,29.83,0,0,0,0.00
2013-6-4,77,69,62,57,48,39,71,48,27,30.14,29.96,0,0,0,0.00
2013-6-5,83,71,60,58,54,49,84,57,34,30.19,30.06,0,0,0,0.00
2013-6-6,74,68,64,65,60,53,99,77,59,30.10,29.87,0,0,0,0.00
2013-6-7,70,68,65,70,68,33,100,100,99,29.87,29.59,0,0,0,0.00
2013-6-8,78,72,65,67,65,62,100,80,60,30.10,29.71,0,0,1,0.00
2013-6-9,80,74,68,70,66,58,93,77,50,30.20,30.09,0,0,0,0.00
2013-6-10,78,72,68,75,71,67,100,96,86,30.11,29.79,0,0,0,0.00
2013-6-11,83,75,66,70,65,53,100,75,46,29.86,29.79,0,0,0,0.00
2013-6-12,89,80,70,71,65,61,82,62,41,29.88,29.79,0,0,0,0.00
2013-6-13,88,77,70,74,67,55,93,72,49,29.82,29.46,0,0,0,0.00
2013-6-14,79,70,61,59,54,48,87,57,36,29.98,29.60,0,0,0,0.00
2013-6-15,83,75,65,64,56,52,75,53,34,30.09,29.98,0,0,0,0.00
2013-6-16,85,76,69,68,65,61,83,68,49,30.03,29.89,0,0,0,0.00
2013-6-17,86,79,73,73,69,66,85,73,58,29.98,29.88,0,0,0,0.00
2013-6-18,78,72,67,72,69,64,98,89,73,29.92,29.81,0,0,0,0.00
2013-6-19,76,70,66,65,62,59,94,76,57,30.17,29.90,0,0,0,0.00
2013-6-20,81,72,65,66,61,54,94,69,47,30.29,30.17,0,0,0,0.00
2013-6-21,83,73,62,66,56,47,82,57,31,30.32,30.24,0,0,0,0.00
2013-6-22,86,76,66,68,65,62,94,70,48,30.27,30.15,0,0,0,0.00
2013-6-23,84,75,70,74,70,66,99,84,66,30.20,30.08,0,0,0,0.00
2013-6-24,92,78,73,76,72,68,96,82,54,30.14,30.04,0,0,0,0.00
2013-6-25,94,82,72,73,70,60,95,69,44,30.06,29.90,0,0,0,0.00
2013-6-26,90,80,73,76,69,65,84,71,53,29.94,29.81,0,0,0,0.00
2013-6-27,84,75,71,74,71,68,98,88,69,29.85,29.64,0,0,0,0.00
2013-6-28,88,75,70,74,71,68,100,88,54,29.65,29.51,0,0,0,0.00
2013-6-29,87,78,68,72,67,59,100,73,43,29.71,29.55,0,0,0,0.00
2013-6-30,86,78,73,77,74,72,98,86,66,29.86,29.71,0,0,0,0.00
2013-7-1,82,76,72,76,72,70,99,89,71,30.00,29.86,0,0,0,0.00
2013-7-2,81,76,73,76,73,71,98,90,77,30.20,30.00,0,0,0,0.00
2013-7-3,85,78,72,77,73,70,99,87,69,30.25,30.17,0,0,0,0.00
2013-7-4,88,81,75,75,73,69,95,78,53,30.27,30.18,0,0,0,0.00
2013-7-5,89,82,75,74,72,70,90,74,53,30.25,30.13,0,0,0,0.00
2013-7-6,92,83,76,76,73,70,90,73,50,30.20,30.08,0,0,0,0.00
2013-7-7,92,81,73,75,72,66,90,73,53,30.13,30.01,0,0,0,0.00
2013-7-8,86,78,71,72,69,65,96,77,50,30.12,30.05,0,0,0,0.00
2013-7-9,84,79,75,75,72,69,92,79,66,30.12,30.01,0,0,0,0.00
2013-7-10,88,80,73,78,74,70,98,84,65,30.02,29.87,0,0,0,0.00
2013-7-11,84,78,73,73,71,67,97,81,58,29.94,29.85,0,0,0,0.00
2013-7-12,77,71,67,72,68,66,99,92,80,30.04,29.91,0,0,0,0.00
2013-7-13,84,76,70,76,71,68,98,85,67,30.28,30.03,0,0,0,0.00
2013-7-14,88,81,74,76,73,68,99,79,53,30.35,30.28,0,0,0,0.00
2013-7-15,93,84,75,75,72,68,92,70,46,30.32,30.19,0,0,0,0.00
2013-7-16,93,86,80,75,71,66,77,60,42,30.24,30.17,2,0,6,0.00
2013-7-17,94,85,79,77,72,67,85,66,44,30.22,30.10,7,1,8,0.00
2013-7-18,94,86,79,80,76,73,86,72,52,30.13,30.00,9,2,13,0.00
2013-7-19,95,88,81,79,76,72,82,68,51,30.02,29.88,12,3,18,0.00
2013-7-20,94,86,80,76,74,69,84,69,46,29.92,29.80,14,3,18,0.00
2013-7-21,91,82,78,74,70,67,87,69,48,29.95,29.88,10,2,19,0.00
2013-7-22,89,81,75,75,73,69,92,77,58,29.94,29.77,8,2,13,0.00
2013-7-23,87,80,73,74,70,64,98,74,48,29.80,29.65,17,3,23,0.00
2013-7-24,84,79,75,70,65,58,77,63,48,29.92,29.69,15,3,18,0.00
2013-7-25,81,73,65,64,58,52,73,60,44,30.04,29.91,16,4,21,0.00
2013-7-26,83,75,66,66,61,57,85,62,42,30.10,30.03,7,2,12,0.00
2013-7-27,85,75,71,71,68,65,97,80,55,30.07,29.93,14,3,23,0.00
2013-7-28,83,76,70,73,70,66,97,83,63,30.01,29.90,7,2,9,0.00
2013-7-29,83,75,68,70,58,50,88,59,33,30.18,29.99,12,3,17,0.00
2013-7-30,82,75,67,67,58,53,78,57,41,30.25,30.15,9,2,14,0.00
2013-7-31,79,74,70,69,67,63,95,78,61,30.17,30.04,16,2,16,0.00
2013-8-1,80,73,68,73,70,67,100,92,77,30.04,29.82,9,2,15,0.00
2013-8-2,86,77,69,69,65,60,95,68,43,29.98,29.87,11,2,17,0.00
2013-8-3,80,74,70,69,66,61,90,76,55,29.99,29.93,7,1,12,0.00
2013-8-4,82,74,67,67,58,50,90,62,36,30.05,29.92,17,3,23,0.00
2013-8-5,80,72,65,61,55,50,69,56,36,30.12,30.02,8,2,11,0.00
2013-8-6,72,70,68,67,65,61,94,84,69,30.10,30.02,7,2,10,0.00
2013-8-7,83,76,70,72,69,66,92,81,67,30.09,30.00,10,3,13,0.00
2013-8-8,87,79,75,76,73,71,89,81,65,30.05,29.99,13,3,16,0.00
2013-8-9,91,84,77,76,73,70,89,72,53,29.99,29.86,16,3,23,0.00
2013-8-10,82,78,75,72,67,61,84,69,53,30.10,29.96,9,2,12,0.00
2013-8-11,84,78,74,71,68,63,88,73,54,30.12,30.02,7,2,10,0.00
2013-8-12,89,80,73,74,68,60,90,69,39,30.04,29.93,11,2,16,0.00
2013-8-13,85,78,69,74,70,65,98,78,55,29.93,29.74,21,3,34,0.00
2013-8-14,74,69,62,70,50,48,98,53,43,30.12,29.83,19,4,26,0.00
2013-8-15,78,69,60,58,52,44,76,56,31,30.20,30.10,12,2,14,0.00
2013-8-16,79,70,61,60,55,51,85,61,41,30.22,30.15,10,2,12,0.00
2013-8-17,78,70,63,61,58,53,86,69,44,30.28,30.21,13,3,16,0.00
2013-8-18,72,69,67,65,62,58,93,78,61,30.23,30.18,9,2,10,0.00
2013-8-19,73,69,64,67,64,62,92,85,77,30.20,30.09,7,1,11,0.00
2013-8-20,86,76,67,72,68,65,95,77,53,30.18,30.10,13,2,15,0.00
2013-8-21,87,79,72,75,72,70,98,81,60,30.21,30.09,9,2,13,0.00
2013-8-22,89,80,72,73,68,64,98,70,46,30.12,29.94,14,3,19,0.00
2013-8-23,78,73,66,71,64,54,94,75,53,30.13,29.95,13,2,15,0.00
2013-8-24,81,72,64,65,60,53,90,66,41,30.35,30.13,10,3,14,0.00
2013-8-25,82,73,64,65,59,52,92,64,37,30.43,30.29,10,2,13,0.00
2013-8-26,87,75,65,66,62,58,84,65,37,30.32,30.03,14,2,20,0.00
2013-8-27,90,80,72,71,67,65,80,65,46,30.03,29.89,13,3,18,0.00
2013-8-28,80,76,74,73,71,68,92,83,68,29.93,29.84,12,1,13,0.00
2013-8-29,84,77,73,72,70,66,94,80,58,30.04,29.84,11,4,14,0.00
2013-8-30,86,78,71,71,69,67,88,75,57,30.06,29.91,11,2,14,0.00
2013-8-31,89,79,72,75,70,68,88,75,54,29.93,29.81,10,3,17,0.00
2013-9-1,90,80,72,74,70,64,87,72,43,29.86,29.77,8,2,15,0.00
2013-9-2,89,79,71,74,72,68,98,80,53,29.83,29.73,12,2,16,0.00
2013-9-3,84,78,72,73,62,54,86,60,39,29.98,29.74,17,4,18,0.00
2013-9-4,82,72,64,61,56,50,71,56,33,30.10,29.98,13,2,17,0.00
2013-9-5,83,75,66,61,57,47,78,56,39,30.14,30.01,13,3,22,0.00
2013-9-6,76,69,60,56,49,44,66,51,35,30.28,30.14,14,3,19,0.00
2013-9-7,79,70,60,64,58,52,84,68,53,30.16,29.95,11,2,17,0.00
2013-9-8,87,77,68,67,63,58,86,65,42,30.06,29.88,12,3,17,0.00
2013-9-9,78,72,64,68,59,50,83,64,54,30.22,30.06,12,4,16,0.00
2013-9-10,89,79,72,74,71,68,89,77,54,30.20,30.11,12,2,13,0.00
2013-9-11,92,83,75,75,72,69,90,72,47,30.17,30.02,13,2,16,0.00
2013-9-12,91,78,71,73,70,64,97,79,48,30.02,29.76,19,2,40,0.00
2013-9-13,78,71,63,70,58,47,96,65,35,29.95,29.72,18,4,23,0.00
2013-9-14,70,62,55,50,46,44,70,56,41,30.18,29.96,19,4,19,0.00
2013-9-15,75,65,53,60,52,47,85,64,44,30.26,30.11,13,2,16,0.00
2013-9-16,73,67,62,61,58,54,93,74,53,30.25,30.06,12,2,16,0.00
2013-9-17,68,61,53,57,45,35,78,58,31,30.45,30.25,14,4,19,0.00
2013-9-18,71,61,52,53,48,42,88,66,36,30.37,30.21,6,1,9,0.00
2013-9-19,76,66,57,59,56,52,92,70,50,30.23,30.10,7,1,14,0.00
2013-9-20,79,69,61,61,58,56,88,70,50,30.12,29.98,10,2,14,0.00
2013-9-21,76,68,63,67,62,58,98,83,60,30.00,29.71,15,3,16,0.00
2013-9-22,72,65,59,63,55,48,98,71,45,29.97,29.76,14,3,16,0.00
2013-9-23,65,60,56,49,45,42,77,59,47,30.12,29.97,12,3,15,0.00
2013-9-24,70,60,51,54,47,44,82,64,40,30.14,29.97,11,2,14,0.00
2013-9-25,73,63,54,56,48,38,86,63,30,30.01,29.90,9,2,10,0.00
2013-9-26,73,65,60,57,54,50,84,69,46,30.09,29.94,9,2,12,0.00
2013-9-27,70,65,59,60,56,54,88,75,59,30.26,30.10,10,2,11,0.00
2013-9-28,69,64,60,56,55,52,84,73,55,30.33,30.24,12,2,13,0.00
2013-9-29,71,63,55,57,55,52,92,76,55,30.24,30.08,8,1,11,0.00
2013-9-30,73,64,56,56,54,52,88,70,48,30.12,30.00,6,1,10,0.00
2013-10-1,80,69,61,63,59,55,86,72,43,30.10,29.99,7,1,13,0.00
2013-10-2,84,73,62,64,61,56,92,69,41,30.11,30.01,12,2,18,0.00
2013-10-3,82,73,64,67,64,60,90,74,51,30.14,30.06,7,1,9,0.00
2013-10-4,85,74,66,68,65,62,94,75,46,30.11,30.02,6,1,12,0.00
2013-10-5,86,76,68,69,67,64,94,74,49,30.11,30.02,8,1,11,0.00
2013-10-6,86,77,69,69,66,64,90,71,48,30.05,29.93,11,2,16,0.00
2013-10-7,76,67,59,71,63,47,98,86,64,30.08,29.82,22,4,34,0.00
2013-10-8,65,60,54,51,48,46,78,65,51,30.30,30.08,13,4,19,0.00
2013-10-9,60,58,55,54,51,48,93,79,70,30.33,30.22,17,6,20,0.00
2013-10-10,58,56,54,58,55,52,98,96,88,30.22,30.00,10,4,18,0.00
2013-10-11,62,60,56,62,60,56,100,98,97,30.02,29.95,12,3,15,0.00
2013-10-12,66,62,60,62,60,58,100,94,80,30.18,30.00,16,6,20,0.00
2013-10-13,64,61,58,60,58,55,97,90,81,30.35,30.18,15,6,19,0.00
2013-10-14,67,61,57,57,55,54,92,82,65,30.36,30.25,11,3,13,0.00
2013-10-15,69,62,54,59,53,43,95,75,40,30.28,30.11,6,2,9,0.00
2013-10-16,70,65,61,63,60,57,93,86,75,30.11,29.94,7,1,10,0.00
2013-10-17,74,68,62,65,63,56,96,85,68,29.95,29.76,15,2,22,0.00
2013-10-18,66,60,54,56,45,40,83,60,42,30.05,29.85,14,3,22,0.00
2013-10-19,64,58,51,59,52,47,90,82,60,30.03,29.82,11,2,17,0.00
2013-10-20,62,55,48,55,38,32,89,55,32,30.13,29.89,26,4,31,0.00
2013-10-21,66,56,46,50,45,37,92,69,36,30.18,29.99,9,2,14,0.00
2013-10-22,64,57,52,53,47,36,85,70,47,29.99,29.84,8,2,14,0.00
2013-10-23,57,51,45,43,38,31,92,65,37,29.93,29.67,13,3,20,0.00
2013-10-24,52,46,41,37,32,26,79,60,36,30.07,29.93,20,4,27,0.00
2013-10-25,52,47,43,32,31,29,65,53,46,30.35,30.29,8,3,14,0.00
2013-10-26,55,47,37,37,32,28,83,57,35,30.33,29.97,18,3,24,0.00
2013-10-27,60,51,44,44,37,32,81,60,37,30.17,29.98,16,2,19,0.00
2013-10-28,51,47,44,45,41,39,85,82,78,30.30,30.17,2,0,4,0.00
2013-10-29,61,53,46,48,43,39,90,71,46,30.40,30.30,6,1,9,0.00
2013-10-30,62,56,52,56,53,48,97,89,79,30.34,30.17,6,1,9,0.00
2013-10-31,68,62,55,61,58,54,96,87,75,30.21,29.80,9,2,15,0.00
2013-11-1,71,66,61,64,61,58,97,84,71,29.79,29.62,26,4,26,0.00
2013-11-2,67,60,52,60,47,39,94,65,43,29.92,29.66,17,2,21,0.00
2013-11-3,56,51,44,43,33,18,77,54,23,30.47,29.91,20,3,22,0.00
2013-11-4,46,42,36,29,25,21,62,52,40,30.66,30.48,12,4,17,0.00
2013-11-5,56,49,40,49,40,29,83,71,61,30.63,30.49,6,1,8,0.00
2013-11-6,67,58,52,54,51,48,87,76,58,30.49,30.09,9,2,13,0.00
2013-11-7,62,55,46,57,46,22,96,75,39,30.11,29.90,19,4,28,0.00
2013-11-8,51,45,39,29,26,21,66,48,31,30.35,30.11,20,3,33,0.00
2013-11-9,55,45,34,34,29,26,82,56,34,30.39,30.06,13,2,17,0.00
2013-11-10,63,51,42,38,30,26,70,47,25,30.26,29.97,20,5,30,0.00
2013-11-11,57,49,40,34,30,27,69,49,33,30.34,30.03,10,3,18,0.00
2013-11-12,52,43,34,38,24,14,65,47,35,30.43,29.99,17,4,22,0.00
2013-11-13,42,37,32,22,19,17,59,49,39,30.51,30.42,14,3,21,0.00
2013-11-14,54,41,32,35,26,18,82,57,26,30.42,30.25,7,1,9,0.00
2013-11-15,59,46,35,45,31,26,93,60,31,30.31,30.21,7,1,9,0.00
2013-11-16,52,49,46,51,48,44,98,97,93,30.35,30.26,5,1,9,0.00
2013-11-17,63,57,51,59,55,50,99,92,82,30.26,29.78,8,2,13,0.00
2013-11-18,68,60,52,62,39,18,98,55,15,29.98,29.72,29,5,34,0.00
2013-11-19,51,46,41,28,26,24,57,47,36,30.40,29.97,17,6,26,0.00
2013-11-20,47,41,37,32,27,23,78,58,44,30.59,30.40,11,3,15,0.00
2013-11-21,49,43,36,43,35,29,86,74,65,30.59,30.42,8,1,10,0.00
2013-11-22,60,53,46,55,47,40,93,82,73,30.42,30.02,11,1,20,0.00
2013-11-23,58,46,34,50,27,12,76,49,31,30.23,30.04,27,8,32,0.00
2013-11-24,34,29,26,12,6,1,46,37,29,30.56,30.23,23,7,37,0.00
2013-11-25,37,30,24,14,10,8,52,42,30,30.62,30.37,11,3,14,0.00
2013-11-26,52,37,33,52,29,13,99,77,40,30.38,29.61,15,2,20,0.00
2013-11-27,40,38,31,39,32,15,98,83,51,30.08,29.54,22,6,30,0.00
2013-11-28,38,33,28,25,17,12,73,52,40,30.51,30.08,19,4,32,0.00
2013-11-29,42,35,29,25,22,19,82,59,40,30.75,30.49,11,2,20,0.00
2013-11-30,37,33,28,29,23,20,77,65,51,30.75,30.40,8,2,9,0.00
2013-12-1,46,38,30,34,29,26,88,71,51,30.40,30.04,6,1,8,0.00
2013-12-2,47,44,41,40,36,31,80,73,65,30.04,29.89,6,1,8,0.00
2013-12-3,55,47,42,40,37,34,82,70,50,30.01,29.90,4,1,9,0.00
2013-12-4,54,48,42,50,43,38,90,82,75,30.10,30.01,3,0,5,0.00
2013-12-5,69,59,51,61,56,49,96,88,69,30.09,29.95,11,3,17,0.00
2013-12-6,64,52,40,62,50,38,98,95,90,30.19,29.90,18,4,24,0.00
2013-12-7,43,38,33,38,30,21,96,73,52,30.58,30.16,13,4,19,0.00
2013-12-8,33,30,28,31,25,20,97,81,61,30.62,30.31,14,3,15,0.00
2013-12-9,32,32,32,32,32,31,98,97,96,30.33,30.18,0,0,0,0.00
2013-12-10,34,32,31,27,24,22,84,73,63,30.26,30.19,4,1,9,0.00
2013-12-11,36,31,27,28,25,20,90,79,67,30.40,30.25,3,0,6,0.00
2013-12-12,33,30,27,27,15,8,84,54,36,30.47,30.27,12,3,20,0.00
2013-12-13,43,35,28,28,17,11,72,50,30,30.34,30.25,12,2,13,0.00
2013-12-14,41,37,35,37,32,22,100,81,57,30.35,29.73,12,3,17,0.00
2013-12-15,48,39,34,37,30,22,96,72,50,29.98,29.66,18,4,27,0.00
2013-12-16,38,36,34,27,24,21,75,63,57,30.22,29.98,9,3,14,0.00
2013-12-17,39,36,34,35,30,26,90,79,69,30.19,29.96,8,2,10,0.00
2013-12-18,42,36,32,33,24,16,95,65,40,30.25,30.02,18,3,26,0.00
2013-12-19,60,44,31,29,26,23,81,52,26,30.24,30.09,9,2,15,0.00
2013-12-20,59,53,46,48,34,26,71,49,37,30.14,30.01,10,3,14,0.00
2013-12-21,70,62,54,60,51,42,80,67,54,30.05,29.92,17,5,23,0.00
2013-12-22,71,64,60,63,60,58,97,87,71,30.05,29.84,23,5,27,0.00
2013-12-23,63,55,40,63,51,27,99,86,57,30.26,29.95,17,4,27,0.00
2013-12-24,41,35,25,27,18,4,64,49,33,30.52,30.23,30,6,35,0.00
2013-12-25,33,27,22,21,11,7,75,51,35,30.61,30.42,12,3,14,0.00
2013-12-26,42,34,28,29,24,20,82,68,47,30.42,30.25,7,2,12,0.00
2013-12-27,50,38,30,30,24,18,88,61,29,30.46,30.34,8,1,13,0.00
2013-12-28,56,43,32,32,27,23,81,55,28,30.37,30.15,11,2,13,0.00
2013-12-29,49,45,42,47,40,26,99,85,42,30.14,29.56,14,3,22,0.00
2013-12-30,46,40,34,40,32,21,97,73,57,30.21,29.84,15,3,20,0.00
2013-12-31,46,35,32,29,22,15,68,59,37,30.35,30.13,15,4,27,0.00
2014-1-1,48,38,29,33,25,16,81,61,44,30.45,30.18,5,2,11,0.00
2014-1-2,39,35,31,34,32,30,99,90,77,30.16,29.65,9,3,13,0.00